sensor_id;sensor_type;location;lat;lon;timestamp;temperature;humidity
41471;DHT22;27211;51.220;5.308;2023-02-01T00:02:02;6.40;99.90
41471;DHT22;27211;51.220;5.308;2023-02-01T00:04:28;6.50;99.90
41471;DHT22;27211;51.220;5.308;2023-02-01T00:06:54;6.50;99.90
41471;DHT22;27211;51.220;5.308;2023-02-01T00:09:20;6.40;99.90
41471;DHT22;27211;51.220;5.308;2023-02-01T00:11:46;6.50;99.90
41471;DHT22;27211;51.220;5.308;2023-02-01T00:14:12;6.40;99.90
41471;DHT22;27211;51.220;5.308;2023-02-01T00:16:39;6.30;99.90
41471;DHT22;27211;51.220;5.308;2023-02-01T00:19:07;6.40;99.90
41471;DHT22;27211;51.220;5.308;2023-02-01T00:21:35;6.40;99.90
41471;DHT22;27211;51.220;5.308;2023-02-01T00:24:00;6.50;99.90
41471;DHT22;27211;51.220;5.308;2023-02-01T00:26:36;6.50;99.90
41471;DHT22;27211;51.220;5.308;2023-02-01T00:29:04;6.50;99.90
41471;DHT22;27211;51.220;5.308;2023-02-01T00:31:30;6.60;99.90
41471;DHT22;27211;51.220;5.308;2023-02-01T00:33:56;6.50;99.90
41471;DHT22;27211;51.220;5.308;2023-02-01T00:36:22;6.50;99.90
41471;DHT22;27211;51.220;5.308;2023-02-01T00:38:48;6.60;99.90
41471;DHT22;27211;51.220;5.308;2023-02-01T00:41:16;6.60;99.90
41471;DHT22;27211;51.220;5.308;2023-02-01T00:43:43;6.50;99.90
41471;DHT22;27211;51.220;5.308;2023-02-01T00:46:10;6.60;99.90
41471;DHT22;27211;51.220;5.308;2023-02-01T00:48:36;6.70;99.90
41471;DHT22;27211;51.220;5.308;2023-02-01T00:51:05;6.60;99.90
41471;DHT22;27211;51.220;5.308;2023-02-01T00:53:32;6.50;99.90
41471;DHT22;27211;51.220;5.308;2023-02-01T00:55:58;6.60;99.90
41471;DHT22;27211;51.220;5.308;2023-02-01T00:58:24;6.60;99.90
41471;DHT22;27211;51.220;5.308;2023-02-01T01:01:15;6.60;99.90
41471;DHT22;27211;51.220;5.308;2023-02-01T01:03:47;6.50;99.90
41471;DHT22;27211;51.220;5.308;2023-02-01T01:06:18;6.50;99.90
41471;DHT22;27211;51.220;5.308;2023-02-01T01:08:46;6.50;99.90
41471;DHT22;27211;51.220;5.308;2023-02-01T01:11:18;6.40;99.90
41471;DHT22;27211;51.220;5.308;2023-02-01T01:13:45;6.50;99.90
41471;DHT22;27211;51.220;5.308;2023-02-01T01:16:11;6.40;99.90
41471;DHT22;27211;51.220;5.308;2023-02-01T01:18:38;6.20;99.90
41471;DHT22;27211;51.220;5.308;2023-02-01T01:21:05;6.30;99.90
41471;DHT22;27211;51.220;5.308;2023-02-01T01:23:31;6.30;99.90
41471;DHT22;27211;51.220;5.308;2023-02-01T01:25:58;6.20;99.90
41471;DHT22;27211;51.220;5.308;2023-02-01T01:28:24;6.10;99.90
41471;DHT22;27211;51.220;5.308;2023-02-01T01:30:50;6.10;99.90
41471;DHT22;27211;51.220;5.308;2023-02-01T01:33:16;6.20;99.90
41471;DHT22;27211;51.220;5.308;2023-02-01T01:35:42;6.20;99.90
41471;DHT22;27211;51.220;5.308;2023-02-01T01:38:09;6.30;99.90
41471;DHT22;27211;51.220;5.308;2023-02-01T01:40:35;6.20;99.90
41471;DHT22;27211;51.220;5.308;2023-02-01T01:43:01;6.30;99.90
41471;DHT22;27211;51.220;5.308;2023-02-01T01:45:35;6.30;99.90
41471;DHT22;27211;51.220;5.308;2023-02-01T01:48:10;6.40;99.90
41471;DHT22;27211;51.220;5.308;2023-02-01T01:50:41;6.20;99.90
41471;DHT22;27211;51.220;5.308;2023-02-01T01:53:09;6.10;99.90
41471;DHT22;27211;51.220;5.308;2023-02-01T01:55:39;6.10;99.90
41471;DHT22;27211;51.220;5.308;2023-02-01T01:58:25;6.10;99.90
41471;DHT22;27211;51.220;5.308;2023-02-01T02:00:52;6.20;99.90
41471;DHT22;27211;51.220;5.308;2023-02-01T02:05:57;6.10;99.90
41471;DHT22;27211;51.220;5.308;2023-02-01T02:08:27;6.20;99.90
41471;DHT22;27211;51.220;5.308;2023-02-01T02:10:53;6.10;99.90
41471;DHT22;27211;51.220;5.308;2023-02-01T02:13:31;6.20;99.90
41471;DHT22;27211;51.220;5.308;2023-02-01T02:21:56;6.10;99.90
41471;DHT22;27211;51.220;5.308;2023-02-01T02:30:27;6.30;99.90
41471;DHT22;27211;51.220;5.308;2023-02-01T02:38:52;6.10;99.90
41471;DHT22;27211;51.220;5.308;2023-02-01T02:41:26;6.00;99.90
41471;DHT22;27211;51.220;5.308;2023-02-01T02:44:27;6.10;99.90
41471;DHT22;27211;51.220;5.308;2023-02-01T02:47:25;6.20;99.90
41471;DHT22;27211;51.220;5.308;2023-02-01T02:53:11;6.20;99.90
41471;DHT22;27211;51.220;5.308;2023-02-01T02:55:56;6.10;99.90
41471;DHT22;27211;51.220;5.308;2023-02-01T02:58:43;6.10;99.90
41471;DHT22;27211;51.220;5.308;2023-02-01T03:01:28;6.00;99.90
41471;DHT22;27211;51.220;5.308;2023-02-01T03:04:14;6.00;99.90
41471;DHT22;27211;51.220;5.308;2023-02-01T03:06:44;6.10;99.90
41471;DHT22;27211;51.220;5.308;2023-02-01T03:11:47;6.10;99.90
41471;DHT22;27211;51.220;5.308;2023-02-01T03:14:35;6.00;99.90
41471;DHT22;27211;51.220;5.308;2023-02-01T03:17:10;6.00;99.90
41471;DHT22;27211;51.220;5.308;2023-02-01T03:19:44;6.10;99.90
41471;DHT22;27211;51.220;5.308;2023-02-01T03:22:17;6.10;99.90
41471;DHT22;27211;51.220;5.308;2023-02-01T03:24:56;6.10;99.90
41471;DHT22;27211;51.220;5.308;2023-02-01T03:29:57;6.00;99.90
41471;DHT22;27211;51.220;5.308;2023-02-01T03:32:25;6.00;99.90
41471;DHT22;27211;51.220;5.308;2023-02-01T03:34:51;6.00;99.90
41471;DHT22;27211;51.220;5.308;2023-02-01T03:37:25;6.10;99.90
41471;DHT22;27211;51.220;5.308;2023-02-01T03:40:02;6.00;99.90
41471;DHT22;27211;51.220;5.308;2023-02-01T03:42:37;6.00;99.90
41471;DHT22;27211;51.220;5.308;2023-02-01T03:45:13;6.00;99.90
41471;DHT22;27211;51.220;5.308;2023-02-01T03:47:45;6.00;99.90
41471;DHT22;27211;51.220;5.308;2023-02-01T03:50:17;6.10;99.90
41471;DHT22;27211;51.220;5.308;2023-02-01T03:53:01;6.30;99.90
41471;DHT22;27211;51.220;5.308;2023-02-01T03:55:28;6.30;99.90
41471;DHT22;27211;51.220;5.308;2023-02-01T03:58:01;6.30;99.90
41471;DHT22;27211;51.220;5.308;2023-02-01T04:00:29;6.30;99.90
41471;DHT22;27211;51.220;5.308;2023-02-01T04:02:55;6.20;99.90
41471;DHT22;27211;51.220;5.308;2023-02-01T04:05:21;6.10;99.90
41471;DHT22;27211;51.220;5.308;2023-02-01T04:07:48;6.10;99.90
41471;DHT22;27211;51.220;5.308;2023-02-01T04:10:13;6.10;99.90
41471;DHT22;27211;51.220;5.308;2023-02-01T04:12:40;6.00;99.90
41471;DHT22;27211;51.220;5.308;2023-02-01T04:15:07;6.10;99.90
41471;DHT22;27211;51.220;5.308;2023-02-01T04:17:33;6.00;99.90
41471;DHT22;27211;51.220;5.308;2023-02-01T04:19:59;6.00;99.90
41471;DHT22;27211;51.220;5.308;2023-02-01T04:22:25;6.00;99.90
41471;DHT22;27211;51.220;5.308;2023-02-01T04:24:51;6.10;99.90
41471;DHT22;27211;51.220;5.308;2023-02-01T04:27:16;6.20;99.90
41471;DHT22;27211;51.220;5.308;2023-02-01T04:29:42;6.00;99.90
41471;DHT22;27211;51.220;5.308;2023-02-01T04:32:10;6.00;99.90
41471;DHT22;27211;51.220;5.308;2023-02-01T04:34:36;5.90;99.90
41471;DHT22;27211;51.220;5.308;2023-02-01T04:37:02;5.80;99.90
41471;DHT22;27211;51.220;5.308;2023-02-01T04:39:28;5.80;99.90
41471;DHT22;27211;51.220;5.308;2023-02-01T04:41:54;5.80;99.90
41471;DHT22;27211;51.220;5.308;2023-02-01T04:44:20;5.80;99.90
41471;DHT22;27211;51.220;5.308;2023-02-01T04:46:46;5.70;99.90
41471;DHT22;27211;51.220;5.308;2023-02-01T04:49:13;5.70;99.90
41471;DHT22;27211;51.220;5.308;2023-02-01T04:51:40;5.80;99.90
41471;DHT22;27211;51.220;5.308;2023-02-01T04:54:06;5.70;99.90
41471;DHT22;27211;51.220;5.308;2023-02-01T04:56:37;5.80;99.90
41471;DHT22;27211;51.220;5.308;2023-02-01T04:59:03;5.70;99.90
41471;DHT22;27211;51.220;5.308;2023-02-01T05:01:29;5.70;99.90
41471;DHT22;27211;51.220;5.308;2023-02-01T05:03:55;5.80;99.90
41471;DHT22;27211;51.220;5.308;2023-02-01T05:06:22;5.70;99.90
41471;DHT22;27211;51.220;5.308;2023-02-01T05:08:48;5.80;99.90
41471;DHT22;27211;51.220;5.308;2023-02-01T05:11:14;5.70;99.90
41471;DHT22;27211;51.220;5.308;2023-02-01T05:13:59;5.80;99.90
41471;DHT22;27211;51.220;5.308;2023-02-01T05:16:25;5.70;99.90
41471;DHT22;27211;51.220;5.308;2023-02-01T05:18:52;5.70;99.90
41471;DHT22;27211;51.220;5.308;2023-02-01T05:21:18;5.70;99.90
41471;DHT22;27211;51.220;5.308;2023-02-01T05:23:44;5.80;99.90
41471;DHT22;27211;51.220;5.308;2023-02-01T05:26:28;5.80;99.90
41471;DHT22;27211;51.220;5.308;2023-02-01T05:28:55;5.80;99.90
41471;DHT22;27211;51.220;5.308;2023-02-01T05:31:21;5.80;99.90
41471;DHT22;27211;51.220;5.308;2023-02-01T05:33:47;5.80;99.90
41471;DHT22;27211;51.220;5.308;2023-02-01T05:36:13;5.80;99.90
41471;DHT22;27211;51.220;5.308;2023-02-01T05:38:39;5.80;99.90
41471;DHT22;27211;51.220;5.308;2023-02-01T05:41:05;5.80;99.90
41471;DHT22;27211;51.220;5.308;2023-02-01T05:43:31;5.70;99.90
41471;DHT22;27211;51.220;5.308;2023-02-01T05:45:57;5.70;99.90
41471;DHT22;27211;51.220;5.308;2023-02-01T05:48:26;5.60;99.90
41471;DHT22;27211;51.220;5.308;2023-02-01T05:50:52;5.60;99.90
41471;DHT22;27211;51.220;5.308;2023-02-01T05:53:18;5.60;99.90
41471;DHT22;27211;51.220;5.308;2023-02-01T05:55:44;5.60;99.90
41471;DHT22;27211;51.220;5.308;2023-02-01T05:58:10;5.50;99.90
41471;DHT22;27211;51.220;5.308;2023-02-01T06:00:37;5.50;99.90
41471;DHT22;27211;51.220;5.308;2023-02-01T06:03:04;5.50;99.90
41471;DHT22;27211;51.220;5.308;2023-02-01T06:05:30;5.50;99.90
41471;DHT22;27211;51.220;5.308;2023-02-01T06:07:56;5.50;99.90
41471;DHT22;27211;51.220;5.308;2023-02-01T06:10:23;5.60;99.90
41471;DHT22;27211;51.220;5.308;2023-02-01T06:12:48;5.50;99.90
41471;DHT22;27211;51.220;5.308;2023-02-01T06:15:14;5.50;99.90
41471;DHT22;27211;51.220;5.308;2023-02-01T06:17:46;5.60;99.90
41471;DHT22;27211;51.220;5.308;2023-02-01T06:20:16;5.70;99.90
41471;DHT22;27211;51.220;5.308;2023-02-01T06:22:42;5.70;99.90
41471;DHT22;27211;51.220;5.308;2023-02-01T06:25:10;5.80;99.90
41471;DHT22;27211;51.220;5.308;2023-02-01T06:27:36;5.80;99.90
41471;DHT22;27211;51.220;5.308;2023-02-01T06:30:04;5.70;99.90
41471;DHT22;27211;51.220;5.308;2023-02-01T06:32:30;5.80;99.90
41471;DHT22;27211;51.220;5.308;2023-02-01T06:34:55;5.90;99.90
41471;DHT22;27211;51.220;5.308;2023-02-01T06:37:23;5.90;99.90
41471;DHT22;27211;51.220;5.308;2023-02-01T06:39:50;6.00;99.90
41471;DHT22;27211;51.220;5.308;2023-02-01T06:42:16;6.00;99.90
41471;DHT22;27211;51.220;5.308;2023-02-01T06:44:41;6.00;99.90
41471;DHT22;27211;51.220;5.308;2023-02-01T06:47:07;5.90;99.90
41471;DHT22;27211;51.220;5.308;2023-02-01T06:49:33;5.90;99.90
41471;DHT22;27211;51.220;5.308;2023-02-01T06:51:59;5.80;99.90
41471;DHT22;27211;51.220;5.308;2023-02-01T06:54:28;5.80;99.90
41471;DHT22;27211;51.220;5.308;2023-02-01T06:56:53;5.70;99.90
41471;DHT22;27211;51.220;5.308;2023-02-01T06:59:19;5.80;99.90
41471;DHT22;27211;51.220;5.308;2023-02-01T07:01:45;5.70;99.90
41471;DHT22;27211;51.220;5.308;2023-02-01T07:04:11;5.70;99.90
41471;DHT22;27211;51.220;5.308;2023-02-01T07:06:38;5.70;99.90
41471;DHT22;27211;51.220;5.308;2023-02-01T09:39:16;8.00;99.90
41471;DHT22;27211;51.220;5.308;2023-02-01T09:44:49;9.10;99.90
41471;DHT22;27211;51.220;5.308;2023-02-01T09:47:23;9.50;99.90
41471;DHT22;27211;51.220;5.308;2023-02-01T09:50:10;10.20;99.90
41471;DHT22;27211;51.220;5.308;2023-02-01T09:55:26;10.40;99.90
41471;DHT22;27211;51.220;5.308;2023-02-01T09:58:02;10.70;99.90
41471;DHT22;27211;51.220;5.308;2023-02-01T10:00:36;10.80;99.90
41471;DHT22;27211;51.220;5.308;2023-02-01T10:03:04;10.90;99.90
41471;DHT22;27211;51.220;5.308;2023-02-01T10:20:12;12.30;99.90
41471;DHT22;27211;51.220;5.308;2023-02-01T10:22:55;13.00;99.90
41471;DHT22;27211;51.220;5.308;2023-02-01T10:28:15;13.10;99.90
41471;DHT22;27211;51.220;5.308;2023-02-01T10:30:46;13.00;99.90
41471;DHT22;27211;51.220;5.308;2023-02-01T10:33:19;12.90;99.90
41471;DHT22;27211;51.220;5.308;2023-02-01T10:35:52;12.80;99.90
41471;DHT22;27211;51.220;5.308;2023-02-01T10:38:27;12.20;99.90
41471;DHT22;27211;51.220;5.308;2023-02-01T10:41:01;11.90;99.90
41471;DHT22;27211;51.220;5.308;2023-02-01T10:43:30;11.50;99.90
41471;DHT22;27211;51.220;5.308;2023-02-01T10:46:00;11.60;99.90
41471;DHT22;27211;51.220;5.308;2023-02-01T10:48:29;10.90;99.90
41471;DHT22;27211;51.220;5.308;2023-02-01T10:51:00;10.40;99.90
41471;DHT22;27211;51.220;5.308;2023-02-01T10:53:48;10.50;99.90
41471;DHT22;27211;51.220;5.308;2023-02-01T10:56:23;10.70;99.90
41471;DHT22;27211;51.220;5.308;2023-02-01T10:58:50;11.10;99.90
41471;DHT22;27211;51.220;5.308;2023-02-01T11:01:47;11.10;99.90
41471;DHT22;27211;51.220;5.308;2023-02-01T11:04:18;11.10;99.90
41471;DHT22;27211;51.220;5.308;2023-02-01T11:09:38;12.30;99.90
41471;DHT22;27211;51.220;5.308;2023-02-01T11:15:18;12.50;99.90
41471;DHT22;27211;51.220;5.308;2023-02-01T11:17:48;12.30;99.90
41471;DHT22;27211;51.220;5.308;2023-02-01T11:22:59;11.70;99.90
41471;DHT22;27211;51.220;5.308;2023-02-01T11:25:26;10.90;99.90
41471;DHT22;27211;51.220;5.308;2023-02-01T11:27:55;10.80;99.90
41471;DHT22;27211;51.220;5.308;2023-02-01T11:30:38;10.80;99.90
41471;DHT22;27211;51.220;5.308;2023-02-01T11:33:12;10.50;99.90
41471;DHT22;27211;51.220;5.308;2023-02-01T11:35:41;10.50;99.90
41471;DHT22;27211;51.220;5.308;2023-02-01T11:38:21;10.60;99.90
41471;DHT22;27211;51.220;5.308;2023-02-01T11:40:51;10.50;99.90
41471;DHT22;27211;51.220;5.308;2023-02-01T11:43:24;10.30;99.90
41471;DHT22;27211;51.220;5.308;2023-02-01T11:46:36;10.30;99.90
41471;DHT22;27211;51.220;5.308;2023-02-01T11:49:25;10.20;99.90
41471;DHT22;27211;51.220;5.308;2023-02-01T12:00:55;10.00;99.90
41471;DHT22;27211;51.220;5.308;2023-02-01T12:09:12;9.90;99.90
41471;DHT22;27211;51.220;5.308;2023-02-01T12:18:14;9.90;99.90
41471;DHT22;27211;51.220;5.308;2023-02-01T12:26:11;9.90;99.90
41471;DHT22;27211;51.220;5.308;2023-02-01T12:34:51;9.80;99.90
41471;DHT22;27211;51.220;5.308;2023-02-01T12:45:59;9.70;99.90
41471;DHT22;27211;51.220;5.308;2023-02-01T12:48:36;9.60;99.90
41471;DHT22;27211;51.220;5.308;2023-02-01T12:51:18;9.50;99.90
41471;DHT22;27211;51.220;5.308;2023-02-01T12:53:47;9.50;99.90
41471;DHT22;27211;51.220;5.308;2023-02-01T12:56:24;9.60;99.90
41471;DHT22;27211;51.220;5.308;2023-02-01T12:58:58;9.70;99.90
41471;DHT22;27211;51.220;5.308;2023-02-01T13:05:22;9.70;99.90
41471;DHT22;27211;51.220;5.308;2023-02-01T13:08:13;9.70;99.90
41471;DHT22;27211;51.220;5.308;2023-02-01T13:10:57;9.60;99.90
41471;DHT22;27211;51.220;5.308;2023-02-01T13:18:41;9.80;99.90
41471;DHT22;27211;51.220;5.308;2023-02-01T13:21:18;9.80;99.90
41471;DHT22;27211;51.220;5.308;2023-02-01T13:23:52;9.80;99.90
41471;DHT22;27211;51.220;5.308;2023-02-01T13:26:19;9.70;99.90
41471;DHT22;27211;51.220;5.308;2023-02-01T13:29:19;9.80;99.90
41471;DHT22;27211;51.220;5.308;2023-02-01T13:43:19;9.90;99.90
41471;DHT22;27211;51.220;5.308;2023-02-01T13:45:51;9.80;99.90
41471;DHT22;27211;51.220;5.308;2023-02-01T13:48:29;9.70;99.90
41471;DHT22;27211;51.220;5.308;2023-02-01T13:50:59;9.70;99.90
41471;DHT22;27211;51.220;5.308;2023-02-01T13:53:34;9.70;99.90
41471;DHT22;27211;51.220;5.308;2023-02-01T13:56:18;9.80;99.90
41471;DHT22;27211;51.220;5.308;2023-02-01T13:58:47;9.80;99.90
41471;DHT22;27211;51.220;5.308;2023-02-01T14:04:46;9.80;99.90
41471;DHT22;27211;51.220;5.308;2023-02-01T14:07:19;9.70;99.90
41471;DHT22;27211;51.220;5.308;2023-02-01T14:09:45;9.80;99.90
41471;DHT22;27211;51.220;5.308;2023-02-01T14:15:20;9.80;99.90
41471;DHT22;27211;51.220;5.308;2023-02-01T14:17:48;9.70;99.90
41471;DHT22;27211;51.220;5.308;2023-02-01T14:20:38;9.60;99.90
41471;DHT22;27211;51.220;5.308;2023-02-01T14:23:15;9.60;99.90
41471;DHT22;27211;51.220;5.308;2023-02-01T14:25:42;9.60;99.90
41471;DHT22;27211;51.220;5.308;2023-02-01T14:28:23;9.50;99.90
41471;DHT22;27211;51.220;5.308;2023-02-01T14:30:53;9.50;99.90
41471;DHT22;27211;51.220;5.308;2023-02-01T14:33:23;9.50;99.90
41471;DHT22;27211;51.220;5.308;2023-02-01T14:36:06;9.40;99.90
41471;DHT22;27211;51.220;5.308;2023-02-01T14:38:35;9.40;99.90
41471;DHT22;27211;51.220;5.308;2023-02-01T14:41:34;9.40;99.90
41471;DHT22;27211;51.220;5.308;2023-02-01T14:47:02;9.50;99.90
41471;DHT22;27211;51.220;5.308;2023-02-01T14:49:55;9.50;99.90
41471;DHT22;27211;51.220;5.308;2023-02-01T14:52:36;9.50;99.90
41471;DHT22;27211;51.220;5.308;2023-02-01T14:55:14;9.40;99.90
41471;DHT22;27211;51.220;5.308;2023-02-01T14:57:46;9.50;99.90
41471;DHT22;27211;51.220;5.308;2023-02-01T15:00:28;9.50;99.90
41471;DHT22;27211;51.220;5.308;2023-02-01T15:05:42;9.50;99.90
41471;DHT22;27211;51.220;5.308;2023-02-01T15:08:35;9.40;99.90
41471;DHT22;27211;51.220;5.308;2023-02-01T15:11:08;9.40;99.90
41471;DHT22;27211;51.220;5.308;2023-02-01T15:13:39;9.30;99.90
41471;DHT22;27211;51.220;5.308;2023-02-01T15:16:12;9.40;99.90
41471;DHT22;27211;51.220;5.308;2023-02-01T15:18:41;9.40;99.90
41471;DHT22;27211;51.220;5.308;2023-02-01T15:21:23;9.40;99.90
41471;DHT22;27211;51.220;5.308;2023-02-01T15:23:50;9.40;99.90
41471;DHT22;27211;51.220;5.308;2023-02-01T15:26:37;9.40;99.90
41471;DHT22;27211;51.220;5.308;2023-02-01T15:29:09;9.40;99.90
41471;DHT22;27211;51.220;5.308;2023-02-01T15:31:43;9.50;99.90
41471;DHT22;27211;51.220;5.308;2023-02-01T15:34:11;9.50;99.90
41471;DHT22;27211;51.220;5.308;2023-02-01T15:36:38;9.50;99.90
